sensor_id;sensor_type;location;lat;lon;timestamp;pressure;altitude;pressure_sealevel;temperature;humidity
52777;BME280;38656;54.260;20.822;2023-04-21T00:01:38;101748.25;;;21.82;33.94
52777;BME280;38656;54.260;20.822;2023-04-21T00:04:04;101748.09;;;21.76;33.80
52777;BME280;38656;54.260;20.822;2023-04-21T00:06:31;101746.53;;;21.56;34.64
52777;BME280;38656;54.260;20.822;2023-04-21T00:08:58;101733.66;;;21.42;34.81
52777;BME280;38656;54.260;20.822;2023-04-21T00:11:24;101743.38;;;21.69;33.63
52777;BME280;38656;54.260;20.822;2023-04-21T00:13:50;101737.25;;;21.51;34.66
52777;BME280;38656;54.260;20.822;2023-04-21T00:16:16;101737.72;;;20.07;38.00
52777;BME280;38656;54.260;20.822;2023-04-21T00:18:42;101739.72;;;18.46;42.80
52777;BME280;38656;54.260;20.822;2023-04-21T00:21:08;101733.31;;;19.42;41.21
52777;BME280;38656;54.260;20.822;2023-04-21T00:23:35;101729.44;;;20.18;39.88
52777;BME280;38656;54.260;20.822;2023-04-21T00:26:01;101733.69;;;20.99;37.48
52777;BME280;38656;54.260;20.822;2023-04-21T00:28:28;101732.44;;;20.85;37.56
52777;BME280;38656;54.260;20.822;2023-04-21T00:30:54;101731.06;;;20.81;36.95
52777;BME280;38656;54.260;20.822;2023-04-21T00:33:20;101728.97;;;20.93;36.45
52777;BME280;38656;54.260;20.822;2023-04-21T00:35:47;101724.41;;;20.94;36.58
52777;BME280;38656;54.260;20.822;2023-04-21T00:38:13;101729.75;;;20.85;36.34
52777;BME280;38656;54.260;20.822;2023-04-21T00:40:39;101728.50;;;20.27;38.02
52777;BME280;38656;54.260;20.822;2023-04-21T00:43:06;101726.19;;;20.32;38.35
52777;BME280;38656;54.260;20.822;2023-04-21T00:45:32;101733.84;;;20.27;38.85
52777;BME280;38656;54.260;20.822;2023-04-21T00:47:58;101732.09;;;20.62;37.11
52777;BME280;38656;54.260;20.822;2023-04-21T00:50:25;101729.78;;;20.23;38.58
52777;BME280;38656;54.260;20.822;2023-04-21T00:52:51;101728.81;;;19.88;39.24
52777;BME280;38656;54.260;20.822;2023-04-21T00:55:17;101733.34;;;20.50;37.19
52777;BME280;38656;54.260;20.822;2023-04-21T00:57:44;101734.56;;;20.29;37.97
52777;BME280;38656;54.260;20.822;2023-04-21T01:00:11;101735.44;;;20.38;37.75
52777;BME280;38656;54.260;20.822;2023-04-21T01:02:39;101740.75;;;19.76;39.32
52777;BME280;38656;54.260;20.822;2023-04-21T01:05:06;101734.78;;;20.18;38.38
52777;BME280;38656;54.260;20.822;2023-04-21T01:07:36;101729.28;;;20.02;38.90
52777;BME280;38656;54.260;20.822;2023-04-21T01:10:03;101735.38;;;19.76;39.67
52777;BME280;38656;54.260;20.822;2023-04-21T01:12:30;101726.91;;;19.98;39.83
52777;BME280;38656;54.260;20.822;2023-04-21T01:14:56;101721.00;;;20.13;38.67
52777;BME280;38656;54.260;20.822;2023-04-21T01:17:22;101716.38;;;20.23;38.02
52777;BME280;38656;54.260;20.822;2023-04-21T01:19:49;101720.56;;;19.54;39.91
52777;BME280;38656;54.260;20.822;2023-04-21T01:22:18;101720.06;;;18.85;41.11
52777;BME280;38656;54.260;20.822;2023-04-21T01:24:48;101713.88;;;19.40;41.11
52777;BME280;38656;54.260;20.822;2023-04-21T01:27:19;101721.72;;;19.51;41.42
52777;BME280;38656;54.260;20.822;2023-04-21T01:29:48;101714.19;;;19.83;40.13
52777;BME280;38656;54.260;20.822;2023-04-21T01:32:24;101716.84;;;20.01;39.34
52777;BME280;38656;54.260;20.822;2023-04-21T01:34:51;101710.06;;;19.88;39.11
52777;BME280;38656;54.260;20.822;2023-04-21T01:37:20;101708.88;;;19.73;38.67
52777;BME280;38656;54.260;20.822;2023-04-21T01:39:49;101711.91;;;19.88;38.61
52777;BME280;38656;54.260;20.822;2023-04-21T01:42:25;101721.13;;;19.75;38.31
52777;BME280;38656;54.260;20.822;2023-04-21T01:47:17;101715.22;;;17.22;44.23
52777;BME280;38656;54.260;20.822;2023-04-21T01:49:44;101718.75;;;17.93;44.24
52777;BME280;38656;54.260;20.822;2023-04-21T01:52:10;101717.44;;;19.03;41.80
52777;BME280;38656;54.260;20.822;2023-04-21T01:54:36;101711.00;;;19.51;40.14
52777;BME280;38656;54.260;20.822;2023-04-21T01:57:03;101712.31;;;19.65;39.27
52777;BME280;38656;54.260;20.822;2023-04-21T01:59:29;101712.03;;;19.68;38.86
52777;BME280;38656;54.260;20.822;2023-04-21T02:01:56;101703.72;;;19.61;38.97
52777;BME280;38656;54.260;20.822;2023-04-21T02:04:22;101713.75;;;19.59;39.46
52777;BME280;38656;54.260;20.822;2023-04-21T02:06:48;101708.34;;;19.51;39.26
52777;BME280;38656;54.260;20.822;2023-04-21T02:09:14;101711.06;;;19.41;39.03
52777;BME280;38656;54.260;20.822;2023-04-21T02:11:40;101710.81;;;19.35;39.14
52777;BME280;38656;54.260;20.822;2023-04-21T02:14:07;101714.19;;;19.37;38.58
52777;BME280;38656;54.260;20.822;2023-04-21T02:16:33;101712.59;;;19.44;38.73
52777;BME280;38656;54.260;20.822;2023-04-21T02:18:59;101713.81;;;19.32;38.94
52777;BME280;38656;54.260;20.822;2023-04-21T02:21:26;101717.06;;;18.98;39.71
52777;BME280;38656;54.260;20.822;2023-04-21T02:23:53;101709.72;;;19.27;39.04
52777;BME280;38656;54.260;20.822;2023-04-21T02:26:19;101714.28;;;19.17;39.29
52777;BME280;38656;54.260;20.822;2023-04-21T02:28:46;101707.84;;;19.10;39.38
52777;BME280;38656;54.260;20.822;2023-04-21T02:31:12;101716.06;;;18.99;39.31
52777;BME280;38656;54.260;20.822;2023-04-21T02:33:39;101717.78;;;18.80;39.90
52777;BME280;38656;54.260;20.822;2023-04-21T02:36:05;101720.50;;;18.61;40.48
52777;BME280;38656;54.260;20.822;2023-04-21T02:38:31;101722.91;;;18.64;40.22
52777;BME280;38656;54.260;20.822;2023-04-21T02:40:57;101719.00;;;17.60;42.86
52777;BME280;38656;54.260;20.822;2023-04-21T02:43:24;101721.53;;;18.60;40.61
52777;BME280;38656;54.260;20.822;2023-04-21T02:45:50;101727.81;;;18.78;39.56
52777;BME280;38656;54.260;20.822;2023-04-21T02:48:16;101727.13;;;18.76;38.91
52777;BME280;38656;54.260;20.822;2023-04-21T02:50:48;101714.13;;;18.81;39.00
52777;BME280;38656;54.260;20.822;2023-04-21T02:53:15;101713.91;;;18.65;38.96
52777;BME280;38656;54.260;20.822;2023-04-21T02:55:41;101717.84;;;18.61;38.88
52777;BME280;38656;54.260;20.822;2023-04-21T02:58:08;101715.94;;;18.43;39.73
52777;BME280;38656;54.260;20.822;2023-04-21T03:00:34;101711.69;;;18.50;39.24
52777;BME280;38656;54.260;20.822;2023-04-21T03:03:00;101710.00;;;18.49;38.96
52777;BME280;38656;54.260;20.822;2023-04-21T03:05:27;101705.75;;;18.56;39.45
52777;BME280;38656;54.260;20.822;2023-04-21T03:07:53;101709.38;;;18.75;38.84
52777;BME280;38656;54.260;20.822;2023-04-21T03:10:19;101711.94;;;18.67;38.85
52777;BME280;38656;54.260;20.822;2023-04-21T03:12:45;101707.97;;;18.71;38.99
52777;BME280;38656;54.260;20.822;2023-04-21T03:15:11;101708.59;;;18.45;39.58
52777;BME280;38656;54.260;20.822;2023-04-21T03:17:39;101706.34;;;18.50;38.92
52777;BME280;38656;54.260;20.822;2023-04-21T03:20:06;101704.88;;;18.66;38.58
52777;BME280;38656;54.260;20.822;2023-04-21T03:22:35;101700.41;;;18.56;39.11
52777;BME280;38656;54.260;20.822;2023-04-21T03:25:01;101704.75;;;18.57;38.95
52777;BME280;38656;54.260;20.822;2023-04-21T03:27:27;101704.00;;;17.98;40.28
52777;BME280;38656;54.260;20.822;2023-04-21T03:29:53;101705.19;;;17.45;41.72
52777;BME280;38656;54.260;20.822;2023-04-21T03:32:19;101697.41;;;17.32;42.17
52777;BME280;38656;54.260;20.822;2023-04-21T03:34:45;101692.84;;;18.42;40.15
52777;BME280;38656;54.260;20.822;2023-04-21T03:37:12;101699.72;;;18.35;40.49
52777;BME280;38656;54.260;20.822;2023-04-21T03:39:38;101698.91;;;17.76;41.21
52777;BME280;38656;54.260;20.822;2023-04-21T03:42:04;101693.41;;;18.36;40.42
52777;BME280;38656;54.260;20.822;2023-04-21T03:44:30;101695.22;;;18.45;40.32
52777;BME280;38656;54.260;20.822;2023-04-21T03:46:56;101691.75;;;18.15;40.89
52777;BME280;38656;54.260;20.822;2023-04-21T03:49:23;101691.72;;;18.92;39.88
52777;BME280;38656;54.260;20.822;2023-04-21T03:51:49;101699.34;;;19.15;39.39
52777;BME280;38656;54.260;20.822;2023-04-21T03:54:15;101697.94;;;19.20;38.86
52777;BME280;38656;54.260;20.822;2023-04-21T03:56:41;101706.63;;;17.69;40.58
52777;BME280;38656;54.260;20.822;2023-04-21T03:59:08;101702.88;;;18.01;40.81
52777;BME280;38656;54.260;20.822;2023-04-21T04:01:34;101699.91;;;18.14;40.84
52777;BME280;38656;54.260;20.822;2023-04-21T04:04:00;101710.63;;;18.04;40.39
52777;BME280;38656;54.260;20.822;2023-04-21T04:06:26;101699.25;;;18.69;39.97
52777;BME280;38656;54.260;20.822;2023-04-21T04:08:53;101703.44;;;18.81;39.55
52777;BME280;38656;54.260;20.822;2023-04-21T04:11:19;101701.66;;;19.09;39.31
52777;BME280;38656;54.260;20.822;2023-04-21T04:13:45;101707.13;;;18.61;39.89
52777;BME280;38656;54.260;20.822;2023-04-21T04:16:12;101703.47;;;18.62;39.35
52777;BME280;38656;54.260;20.822;2023-04-21T04:18:38;101703.69;;;18.98;38.83
52777;BME280;38656;54.260;20.822;2023-04-21T04:21:07;101698.47;;;18.39;39.95
52777;BME280;38656;54.260;20.822;2023-04-21T04:23:34;101708.25;;;18.78;39.61
52777;BME280;38656;54.260;20.822;2023-04-21T04:26:01;101714.63;;;19.04;39.13
52777;BME280;38656;54.260;20.822;2023-04-21T04:28:30;101704.63;;;19.98;37.62
52777;BME280;38656;54.260;20.822;2023-04-21T04:30:57;101707.41;;;19.42;38.22
52777;BME280;38656;54.260;20.822;2023-04-21T04:33:23;101707.94;;;19.46;38.65
52777;BME280;38656;54.260;20.822;2023-04-21T04:35:49;101706.22;;;19.45;38.66
52777;BME280;38656;54.260;20.822;2023-04-21T04:38:16;101705.03;;;19.57;38.34
52777;BME280;38656;54.260;20.822;2023-04-21T04:40:42;101710.53;;;19.38;39.21
52777;BME280;38656;54.260;20.822;2023-04-21T04:43:08;101710.53;;;19.38;38.85
52777;BME280;38656;54.260;20.822;2023-04-21T04:45:36;101706.28;;;20.17;37.92
52777;BME280;38656;54.260;20.822;2023-04-21T04:48:02;101703.31;;;19.66;38.70
52777;BME280;38656;54.260;20.822;2023-04-21T04:50:29;101698.47;;;19.70;38.47
52777;BME280;38656;54.260;20.822;2023-04-21T04:52:55;101707.66;;;20.21;37.98
52777;BME280;38656;54.260;20.822;2023-04-21T04:55:22;101700.72;;;20.89;36.85
52777;BME280;38656;54.260;20.822;2023-04-21T04:57:49;101697.50;;;21.20;36.92
52777;BME280;38656;54.260;20.822;2023-04-21T05:00:15;101700.75;;;20.63;37.27
52777;BME280;38656;54.260;20.822;2023-04-21T05:02:42;101701.63;;;21.49;36.31
52777;BME280;38656;54.260;20.822;2023-04-21T05:05:08;101699.16;;;21.64;36.21
52777;BME280;38656;54.260;20.822;2023-04-21T05:07:34;101700.34;;;21.61;36.51
52777;BME280;38656;54.260;20.822;2023-04-21T05:10:01;101700.03;;;21.81;36.64
52777;BME280;38656;54.260;20.822;2023-04-21T05:12:29;101705.84;;;21.00;37.15
52777;BME280;38656;54.260;20.822;2023-04-21T05:14:57;101706.38;;;22.62;34.94
52777;BME280;38656;54.260;20.822;2023-04-21T05:17:23;101700.66;;;21.50;36.13
52777;BME280;38656;54.260;20.822;2023-04-21T05:19:49;101696.66;;;21.62;35.93
52777;BME280;38656;54.260;20.822;2023-04-21T05:22:15;101694.28;;;22.66;34.00
52777;BME280;38656;54.260;20.822;2023-04-21T05:24:41;101689.69;;;23.23;33.88
52777;BME280;38656;54.260;20.822;2023-04-21T05:27:09;101697.13;;;23.21;33.65
52777;BME280;38656;54.260;20.822;2023-04-21T05:29:35;101693.78;;;23.19;33.61
52777;BME280;38656;54.260;20.822;2023-04-21T05:32:01;101702.13;;;22.84;34.48
52777;BME280;38656;54.260;20.822;2023-04-21T05:34:27;101694.94;;;23.47;33.28
52777;BME280;38656;54.260;20.822;2023-04-21T05:36:54;101699.69;;;23.06;34.03
52777;BME280;38656;54.260;20.822;2023-04-21T05:39:20;101686.97;;;24.38;32.77
52777;BME280;38656;54.260;20.822;2023-04-21T05:41:46;101693.88;;;24.41;33.01
52777;BME280;38656;54.260;20.822;2023-04-21T05:44:14;101697.00;;;24.30;30.78
52777;BME280;38656;54.260;20.822;2023-04-21T05:46:41;101703.75;;;23.96;31.32
52777;BME280;38656;54.260;20.822;2023-04-21T05:49:07;101702.97;;;23.56;30.49
52777;BME280;38656;54.260;20.822;2023-04-21T05:51:33;101702.38;;;24.00;30.76
52777;BME280;38656;54.260;20.822;2023-04-21T05:53:59;101704.84;;;24.25;29.80
52777;BME280;38656;54.260;20.822;2023-04-21T05:56:25;101700.03;;;24.35;30.40
52777;BME280;38656;54.260;20.822;2023-04-21T05:58:51;101703.94;;;25.37;29.71
52777;BME280;38656;54.260;20.822;2023-04-21T06:01:18;101703.56;;;24.50;31.18
52777;BME280;38656;54.260;20.822;2023-04-21T06:03:44;101698.94;;;25.34;30.08
52777;BME280;38656;54.260;20.822;2023-04-21T06:06:10;101702.47;;;25.19;29.51
52777;BME280;38656;54.260;20.822;2023-04-21T06:08:36;101697.72;;;25.79;29.15
52777;BME280;38656;54.260;20.822;2023-04-21T06:11:02;101694.75;;;26.81;28.19
52777;BME280;38656;54.260;20.822;2023-04-21T06:13:29;101693.84;;;26.39;28.11
52777;BME280;38656;54.260;20.822;2023-04-21T06:15:55;101705.81;;;26.51;28.02
52777;BME280;38656;54.260;20.822;2023-04-21T06:18:21;101701.06;;;26.60;28.06
52777;BME280;38656;54.260;20.822;2023-04-21T06:20:53;101710.19;;;27.29;27.45
52777;BME280;38656;54.260;20.822;2023-04-21T06:23:20;101693.78;;;27.50;26.18
52777;BME280;38656;54.260;20.822;2023-04-21T06:25:57;101703.84;;;27.63;26.26
52777;BME280;38656;54.260;20.822;2023-04-21T06:28:24;101694.25;;;27.67;27.13
52777;BME280;38656;54.260;20.822;2023-04-21T06:30:50;101701.50;;;28.81;25.77
52777;BME280;38656;54.260;20.822;2023-04-21T06:33:16;101696.97;;;28.48;26.22
52777;BME280;38656;54.260;20.822;2023-04-21T06:35:42;101688.34;;;28.77;25.89
52777;BME280;38656;54.260;20.822;2023-04-21T06:38:08;101694.97;;;28.95;25.54
52777;BME280;38656;54.260;20.822;2023-04-21T06:40:35;101694.16;;;29.40;25.29
52777;BME280;38656;54.260;20.822;2023-04-21T06:43:01;101697.44;;;29.80;25.37
52777;BME280;38656;54.260;20.822;2023-04-21T06:45:27;101695.75;;;29.54;25.41
52777;BME280;38656;54.260;20.822;2023-04-21T06:47:53;101701.56;;;28.47;25.93
52777;BME280;38656;54.260;20.822;2023-04-21T06:50:19;101698.66;;;30.35;24.39
52777;BME280;38656;54.260;20.822;2023-04-21T06:52:46;101692.75;;;30.38;24.59
52777;BME280;38656;54.260;20.822;2023-04-21T06:55:12;101700.13;;;30.12;24.77
52777;BME280;38656;54.260;20.822;2023-04-21T06:57:38;101695.84;;;31.04;24.37
52777;BME280;38656;54.260;20.822;2023-04-21T07:00:05;101704.56;;;30.32;24.22
52777;BME280;38656;54.260;20.822;2023-04-21T07:02:31;101701.47;;;30.03;24.28
52777;BME280;38656;54.260;20.822;2023-04-21T07:04:57;101705.16;;;30.78;24.20
52777;BME280;38656;54.260;20.822;2023-04-21T07:07:23;101705.34;;;29.11;26.39
52777;BME280;38656;54.260;20.822;2023-04-21T07:09:50;101703.72;;;30.94;24.53
52777;BME280;38656;54.260;20.822;2023-04-21T07:12:16;101703.84;;;29.93;25.34
52777;BME280;38656;54.260;20.822;2023-04-21T07:14:42;101704.38;;;30.08;24.80
52777;BME280;38656;54.260;20.822;2023-04-21T07:17:09;101700.31;;;31.47;24.12
52777;BME280;38656;54.260;20.822;2023-04-21T07:19:35;101696.31;;;31.31;26.15
52777;BME280;38656;54.260;20.822;2023-04-21T07:22:02;101693.13;;;30.67;24.80
52777;BME280;38656;54.260;20.822;2023-04-21T07:24:28;101691.94;;;32.26;23.42
52777;BME280;38656;54.260;20.822;2023-04-21T07:26:54;101690.97;;;32.33;24.32
52777;BME280;38656;54.260;20.822;2023-04-21T07:29:20;101678.34;;;32.32;23.24
52777;BME280;38656;54.260;20.822;2023-04-21T07:31:46;101682.75;;;33.55;23.51
52777;BME280;38656;54.260;20.822;2023-04-21T07:34:13;101693.66;;;33.09;22.92
52777;BME280;38656;54.260;20.822;2023-04-21T07:36:39;101688.47;;;32.95;22.45
52777;BME280;38656;54.260;20.822;2023-04-21T07:39:06;101684.47;;;31.68;23.50
52777;BME280;38656;54.260;20.822;2023-04-21T07:41:32;101686.41;;;29.43;28.31
52777;BME280;38656;54.260;20.822;2023-04-21T07:43:58;101689.25;;;31.84;24.26
52777;BME280;38656;54.260;20.822;2023-04-21T07:46:25;101681.16;;;32.60;23.11
52777;BME280;38656;54.260;20.822;2023-04-21T07:48:56;101685.91;;;31.82;24.65
52777;BME280;38656;54.260;20.822;2023-04-21T07:51:23;101689.25;;;32.08;25.21
52777;BME280;38656;54.260;20.822;2023-04-21T07:53:50;101677.25;;;32.09;24.09
52777;BME280;38656;54.260;20.822;2023-04-21T07:56:16;101679.56;;;34.09;23.04
52777;BME280;38656;54.260;20.822;2023-04-21T07:58:43;101677.78;;;35.03;22.20
52777;BME280;38656;54.260;20.822;2023-04-21T08:01:09;101680.91;;;33.89;23.10
52777;BME280;38656;54.260;20.822;2023-04-21T08:03:35;101678.59;;;34.59;21.93
52777;BME280;38656;54.260;20.822;2023-04-21T08:06:01;101675.69;;;33.42;22.44
52777;BME280;38656;54.260;20.822;2023-04-21T08:08:28;101676.97;;;35.02;23.05
52777;BME280;38656;54.260;20.822;2023-04-21T08:10:54;101671.84;;;35.11;22.51
52777;BME280;38656;54.260;20.822;2023-04-21T08:13:20;101671.66;;;35.23;21.53
52777;BME280;38656;54.260;20.822;2023-04-21T08:15:50;101667.81;;;35.24;21.92
52777;BME280;38656;54.260;20.822;2023-04-21T08:18:17;101657.47;;;35.96;21.69
52777;BME280;38656;54.260;20.822;2023-04-21T08:20:44;101664.22;;;36.21;22.30
52777;BME280;38656;54.260;20.822;2023-04-21T08:23:13;101660.03;;;36.66;20.92
52777;BME280;38656;54.260;20.822;2023-04-21T08:25:39;101663.41;;;30.96;24.23
52777;BME280;38656;54.260;20.822;2023-04-21T08:28:05;101660.75;;;34.00;24.09
52777;BME280;38656;54.260;20.822;2023-04-21T08:30:32;101651.16;;;33.81;22.73
52777;BME280;38656;54.260;20.822;2023-04-21T08:32:58;101654.34;;;33.15;23.31
52777;BME280;38656;54.260;20.822;2023-04-21T08:35:25;101658.69;;;35.18;21.60
52777;BME280;38656;54.260;20.822;2023-04-21T08:37:51;101656.53;;;35.48;21.10
52777;BME280;38656;54.260;20.822;2023-04-21T08:40:18;101653.66;;;35.97;20.16
52777;BME280;38656;54.260;20.822;2023-04-21T08:42:45;101648.03;;;34.11;23.34
52777;BME280;38656;54.260;20.822;2023-04-21T08:45:11;101647.16;;;36.13;21.82
52777;BME280;38656;54.260;20.822;2023-04-21T08:47:39;101652.53;;;35.98;20.93
52777;BME280;38656;54.260;20.822;2023-04-21T08:50:09;101650.09;;;35.64;22.70
52777;BME280;38656;54.260;20.822;2023-04-21T08:52:37;101659.16;;;37.29;20.18
52777;BME280;38656;54.260;20.822;2023-04-21T08:55:05;101657.47;;;38.05;19.49
52777;BME280;38656;54.260;20.822;2023-04-21T08:57:32;101654.75;;;37.53;20.53
52777;BME280;38656;54.260;20.822;2023-04-21T08:59:59;101647.06;;;36.51;19.86
52777;BME280;38656;54.260;20.822;2023-04-21T09:02:26;101646.41;;;35.86;21.52
52777;BME280;38656;54.260;20.822;2023-04-21T09:04:52;101648.38;;;36.38;20.74
52777;BME280;38656;54.260;20.822;2023-04-21T09:07:36;101647.16;;;36.13;19.80
52777;BME280;38656;54.260;20.822;2023-04-21T09:10:05;101644.00;;;38.69;18.97
52777;BME280;38656;54.260;20.822;2023-04-21T09:12:31;101644.22;;;38.07;19.50
52777;BME280;38656;54.260;20.822;2023-04-21T09:14:57;101639.69;;;36.09;19.04
52777;BME280;38656;54.260;20.822;2023-04-21T09:17:28;101632.94;;;37.62;19.00
52777;BME280;38656;54.260;20.822;2023-04-21T09:20:10;101630.78;;;37.28;19.03
52777;BME280;38656;54.260;20.822;2023-04-21T09:22:37;101635.63;;;38.89;19.08
52777;BME280;38656;54.260;20.822;2023-04-21T09:25:04;101623.53;;;36.91;19.16
52777;BME280;38656;54.260;20.822;2023-04-21T09:27:30;101629.38;;;37.41;18.55
52777;BME280;38656;54.260;20.822;2023-04-21T09:30:02;101620.53;;;37.03;19.21
52777;BME280;38656;54.260;20.822;2023-04-21T09:32:29;101623.09;;;36.46;20.43
52777;BME280;38656;54.260;20.822;2023-04-21T09:35:00;101621.50;;;36.56;18.92
52777;BME280;38656;54.260;20.822;2023-04-21T09:37:32;101616.16;;;37.48;18.26
52777;BME280;38656;54.260;20.822;2023-04-21T09:40:01;101612.25;;;37.18;17.74
52777;BME280;38656;54.260;20.822;2023-04-21T09:42:31;101609.50;;;36.88;18.46
52777;BME280;38656;54.260;20.822;2023-04-21T09:44:58;101618.13;;;36.43;17.51
52777;BME280;38656;54.260;20.822;2023-04-21T09:47:25;101611.19;;;37.35;17.46
52777;BME280;38656;54.260;20.822;2023-04-21T09:49:54;101614.91;;;36.62;18.28
52777;BME280;38656;54.260;20.822;2023-04-21T09:52:21;101611.72;;;37.11;18.42
52777;BME280;38656;54.260;20.822;2023-04-21T09:55:02;101602.94;;;37.30;18.67
52777;BME280;38656;54.260;20.822;2023-04-21T09:57:32;101605.16;;;34.88;18.26
52777;BME280;38656;54.260;20.822;2023-04-21T10:00:05;101596.63;;;35.44;18.33
52777;BME280;38656;54.260;20.822;2023-04-21T10:02:42;101597.84;;;36.65;18.23
52777;BME280;38656;54.260;20.822;2023-04-21T10:05:09;101597.00;;;35.58;18.75
52777;BME280;38656;54.260;20.822;2023-04-21T10:07:37;101596.84;;;35.10;18.20
52777;BME280;38656;54.260;20.822;2023-04-21T10:10:07;101590.69;;;36.06;19.42
52777;BME280;38656;54.260;20.822;2023-04-21T10:12:34;101584.19;;;37.73;17.29
52777;BME280;38656;54.260;20.822;2023-04-21T10:15:04;101582.00;;;37.29;17.35
52777;BME280;38656;54.260;20.822;2023-04-21T10:17:34;101575.28;;;37.92;16.52
52777;BME280;38656;54.260;20.822;2023-04-21T10:20:06;101585.63;;;35.82;17.87
52777;BME280;38656;54.260;20.822;2023-04-21T10:22:35;101576.34;;;34.91;18.06
52777;BME280;38656;54.260;20.822;2023-04-21T10:25:07;101573.03;;;36.49;18.86
52777;BME280;38656;54.260;20.822;2023-04-21T10:27:40;101574.59;;;34.80;18.05
52777;BME280;38656;54.260;20.822;2023-04-21T10:30:23;101563.78;;;37.48;17.82
52777;BME280;38656;54.260;20.822;2023-04-21T10:33:04;101561.44;;;36.42;17.20
52777;BME280;38656;54.260;20.822;2023-04-21T10:35:57;101562.81;;;36.40;17.90
52777;BME280;38656;54.260;20.822;2023-04-21T10:38:42;101563.88;;;35.10;18.16
52777;BME280;38656;54.260;20.822;2023-04-21T10:41:27;101551.13;;;35.26;17.28
52777;BME280;38656;54.260;20.822;2023-04-21T10:43:57;101548.38;;;37.27;17.93
52777;BME280;38656;54.260;20.822;2023-04-21T10:46:38;101541.53;;;36.20;18.38
52777;BME280;38656;54.260;20.822;2023-04-21T10:49:09;101543.41;;;37.13;17.55
52777;BME280;38656;54.260;20.822;2023-04-21T10:54:43;101538.81;;;35.29;17.63
52777;BME280;38656;54.260;20.822;2023-04-21T10:57:32;101536.13;;;36.40;17.69
52777;BME280;38656;54.260;20.822;2023-04-21T10:59:59;101525.59;;;38.02;16.42
52777;BME280;38656;54.260;20.822;2023-04-21T11:02:25;101532.25;;;37.90;16.79
52777;BME280;38656;54.260;20.822;2023-04-21T11:04:55;101517.94;;;36.34;17.13
52777;BME280;38656;54.260;20.822;2023-04-21T11:07:25;101516.03;;;36.35;16.77
52777;BME280;38656;54.260;20.822;2023-04-21T11:10:08;101518.06;;;37.11;17.24
52777;BME280;38656;54.260;20.822;2023-04-21T11:12:39;101513.03;;;35.35;18.26
52777;BME280;38656;54.260;20.822;2023-04-21T11:15:10;101509.25;;;34.27;18.68
52777;BME280;38656;54.260;20.822;2023-04-21T11:17:38;101512.09;;;34.37;18.64
52777;BME280;38656;54.260;20.822;2023-04-21T11:20:05;101507.69;;;34.86;17.71
52777;BME280;38656;54.260;20.822;2023-04-21T11:22:32;101501.34;;;33.02;19.43
52777;BME280;38656;54.260;20.822;2023-04-21T11:24:59;101495.63;;;32.40;19.83
52777;BME280;38656;54.260;20.822;2023-04-21T11:27:28;101492.66;;;34.99;18.46
52777;BME280;38656;54.260;20.822;2023-04-21T11:29:55;101492.69;;;36.68;17.53
52777;BME280;38656;54.260;20.822;2023-04-21T11:32:22;101488.16;;;36.10;17.29
52777;BME280;38656;54.260;20.822;2023-04-21T11:34:49;101490.78;;;35.85;17.23
52777;BME280;38656;54.260;20.822;2023-04-21T11:37:25;101486.31;;;35.68;18.15
52777;BME280;38656;54.260;20.822;2023-04-21T11:39:59;101481.22;;;35.44;17.96
52777;BME280;38656;54.260;20.822;2023-04-21T11:42:26;101470.97;;;34.97;18.63
52777;BME280;38656;54.260;20.822;2023-04-21T11:44:56;101473.16;;;35.28;18.15
52777;BME280;38656;54.260;20.822;2023-04-21T11:47:26;101472.81;;;34.10;19.37
52777;BME280;38656;54.260;20.822;2023-04-21T11:49:54;101471.75;;;32.36;19.92
52777;BME280;38656;54.260;20.822;2023-04-21T11:52:31;101468.31;;;33.98;19.04
52777;BME280;38656;54.260;20.822;2023-04-21T11:55:05;101468.16;;;34.32;18.83
52777;BME280;38656;54.260;20.822;2023-04-21T11:57:35;101471.63;;;33.61;19.32
52777;BME280;38656;54.260;20.822;2023-04-21T12:00:07;101466.00;;;34.94;18.78
52777;BME280;38656;54.260;20.822;2023-04-21T12:02:33;101456.75;;;33.96;19.29
52777;BME280;38656;54.260;20.822;2023-04-21T12:05:06;101465.00;;;34.46;18.90
52777;BME280;38656;54.260;20.822;2023-04-21T12:07:35;101454.69;;;34.58;18.52
52777;BME280;38656;54.260;20.822;2023-04-21T12:10:11;101444.00;;;35.74;17.64
52777;BME280;38656;54.260;20.822;2023-04-21T12:12:38;101446.91;;;35.09;17.37
52777;BME280;38656;54.260;20.822;2023-04-21T12:15:09;101438.72;;;33.78;20.07
52777;BME280;38656;54.260;20.822;2023-04-21T12:17:42;101434.78;;;35.48;19.73
52777;BME280;38656;54.260;20.822;2023-04-21T12:20:09;101436.03;;;35.25;18.16
52777;BME280;38656;54.260;20.822;2023-04-21T12:22:36;101430.38;;;33.90;18.01
52777;BME280;38656;54.260;20.822;2023-04-21T12:25:03;101425.16;;;35.45;18.34
52777;BME280;38656;54.260;20.822;2023-04-21T12:27:29;101415.50;;;36.01;18.95
52777;BME280;38656;54.260;20.822;2023-04-21T12:29:56;101418.41;;;35.74;18.44
52777;BME280;38656;54.260;20.822;2023-04-21T12:32:22;101412.78;;;33.25;19.84
52777;BME280;38656;54.260;20.822;2023-04-21T12:34:49;101414.00;;;35.20;18.96
52777;BME280;38656;54.260;20.822;2023-04-21T12:37:15;101401.78;;;34.30;18.95
52777;BME280;38656;54.260;20.822;2023-04-21T12:39:41;101405.84;;;34.28;19.29
52777;BME280;38656;54.260;20.822;2023-04-21T12:42:08;101405.13;;;33.88;19.06
52777;BME280;38656;54.260;20.822;2023-04-21T12:44:34;101397.25;;;33.13;20.03
52777;BME280;38656;54.260;20.822;2023-04-21T12:47:00;101395.75;;;33.84;18.87
52777;BME280;38656;54.260;20.822;2023-04-21T12:49:35;101392.16;;;34.60;18.66